Time;durP1;ratioP1;P1;durP2;ratioP2;P2;SDS_P1;SDS_P2;PMS_P1;PMS_P2;Temp;Humidity;BMP_temperature;BMP_pressure;BME280_temperature;BME280_humidity;BME280_pressure;Samples;Min_cycle;Max_cycle;Signal;HPM_P1;HPM_P2
2022/07/21 00:01:01;;;;;;;12.67;7.33;;;28.80;50.30;;;;;;4996891;28;20078;-51
2022/07/21 00:03:27;;;;;;;15.47;8.17;;;28.80;50.00;;;;;;4994651;28;20076;-55
2022/07/21 00:05:52;;;;;;;16.23;9.70;;;28.80;50.10;;;;;;4995964;28;20118;-52
2022/07/21 00:08:18;;;;;;;22.63;8.83;;;28.70;50.80;;;;;;5000631;28;20556;-52
2022/07/21 00:10:44;;;;;;;11.73;7.17;;;28.70;50.20;;;;;;5012287;28;20026;-55
2022/07/21 00:13:09;;;;;;;18.17;9.07;;;28.70;50.20;;;;;;5015195;28;20035;-55
2022/07/21 00:15:35;;;;;;;24.50;8.53;;;28.60;50.60;;;;;;5014698;28;20128;-53
2022/07/21 00:18:01;;;;;;;12.40;7.37;;;28.50;50.50;;;;;;5015026;28;20037;-55
2022/07/21 00:20:27;;;;;;;10.80;7.07;;;28.50;50.60;;;;;;5012137;28;20072;-53
2022/07/21 00:22:53;;;;;;;38.78;8.70;;;28.50;50.70;;;;;;5014172;28;20051;-53
2022/07/21 00:25:20;;;;;;;30.35;8.07;;;28.50;50.70;;;;;;5006775;28;20041;-51
2022/07/21 00:27:46;;;;;;;10.55;7.07;;;28.50;51.40;;;;;;5011011;28;20042;-55
2022/07/21 00:30:13;;;;;;;20.17;7.50;;;28.40;51.20;;;;;;4996492;28;20521;-55
2022/07/21 00:32:39;;;;;;;15.27;7.53;;;28.40;50.60;;;;;;4995450;28;20026;-53
2022/07/21 00:35:07;;;;;;;10.23;6.18;;;28.40;50.60;;;;;;4995388;28;20038;-55
2022/07/21 00:37:33;;;;;;;11.55;6.63;;;28.40;50.80;;;;;;4996343;28;20033;-53
2022/07/21 00:39:58;;;;;;;14.37;6.87;;;28.30;50.80;;;;;;4999988;28;20109;-54
2022/07/21 00:42:25;;;;;;;15.53;7.13;;;;;;;;;;4995045;28;20033;-55
2022/07/21 00:44:51;;;;;;;11.45;6.65;;;;;;;;;;4997802;28;20109;-55
2022/07/21 00:47:21;;;;;;;27.63;7.38;;;;;;;;;;5014537;28;20101;-54
2022/07/21 00:49:48;;;;;;;17.30;7.13;;;;;;;;;;5014634;28;20034;-52
2022/07/21 00:52:14;;;;;;;15.18;6.80;;;;;;;;;;5010241;28;20479;-51
2022/07/21 00:54:40;;;;;;;9.40;6.50;;;;;;;;;;5007813;28;20102;-53
2022/07/21 00:57:06;;;;;;;13.88;6.82;;;;;;;;;;4998018;28;20058;-53
2022/07/21 00:59:32;;;;;;;21.85;7.22;;;;;;;;;;5014200;28;20018;-52
2022/07/21 01:01:58;;;;;;;11.98;6.85;;;28.30;50.70;;;;;;5012536;28;20555;-52
2022/07/21 01:04:24;;;;;;;11.23;5.87;;;28.10;50.90;;;;;;5004180;28;20097;-54
2022/07/21 01:06:49;;;;;;;22.10;7.63;;;28.00;51.10;;;;;;4977433;28;20065;-54
2022/07/21 01:09:15;;;;;;;48.17;8.23;;;;;;;;;;4979577;28;20501;-53
2022/07/21 01:11:42;;;;;;;15.98;8.43;;;;;;;;;;4994669;28;20138;-54
2022/07/21 01:14:08;;;;;;;25.27;8.50;;;;;;;;;;4996207;28;20419;-55
2022/07/21 01:16:34;;;;;;;37.63;11.40;;;;;;;;;;4994509;28;20039;-54
2022/07/21 01:19:00;;;;;;;14.57;8.10;;;;;;;;;;5006340;28;20037;-55
2022/07/21 01:21:30;;;;;;;13.27;6.78;;;;;;;;;;4994682;28;20479;-52
2022/07/21 01:23:56;;;;;;;11.48;6.88;;;;;;;;;;4994580;28;20026;-52
2022/07/21 01:26:22;;;;;;;14.77;7.30;;;;;;;;;;5011980;28;20032;-53
2022/07/21 01:28:48;;;;;;;15.90;7.88;;;;;;;;;;5013656;28;20033;-55
2022/07/21 01:31:14;;;;;;;13.35;6.93;;;;;;;;;;5004827;28;20058;-55
2022/07/21 01:33:40;;;;;;;13.95;8.10;;;;;;;;;;4994286;28;20510;-51
2022/07/21 01:36:07;;;;;;;10.20;7.80;;;;;;;;;;4996128;28;20026;-53
2022/07/21 01:41:29;;;;;;;11.40;6.82;;;;;;;;;;4995630;28;20067;-55
2022/07/21 01:43:56;;;;;;;12.45;6.55;;;;;;;;;;4994570;28;20030;-54
2022/07/21 01:46:22;;;;;;;;;;;;;;;;;;4996123;28;20036;-53
2022/07/21 01:48:48;;;;;;;11.40;7.03;;;;;;;;;;4993964;28;20274;-53
2022/07/21 01:51:14;;;;;;;13.07;6.68;;;;;;;;;;4995474;28;20034;-55
2022/07/21 01:53:40;;;;;;;10.00;6.88;;;;;;;;;;5000848;28;20031;-56
2022/07/21 01:56:07;;;;;;;13.23;7.00;;;;;;;;;;4994951;28;20049;-52
2022/07/21 01:58:33;;;;;;;13.32;6.95;;;;;;;;;;4993751;28;20041;-52
2022/07/21 02:00:59;;;;;;;13.20;6.13;;;;;;;;;;5006503;28;20056;-51
2022/07/21 02:03:25;;;;;;;17.67;6.15;;;;;;;;;;5013191;28;20556;-53
2022/07/21 02:05:51;;;;;;;11.63;6.55;;;;;;;;;;5011256;28;20056;-54
2022/07/21 02:08:17;;;;;;;10.60;6.50;;;;;;;;;;5006811;28;20037;-53
2022/07/21 02:10:43;;;;;;;10.52;6.05;;;;;;;;;;4997873;28;20033;-55
2022/07/21 02:13:09;;;;;;;10.60;5.57;;;;;;;;;;5011221;28;20046;-56
2022/07/21 02:15:35;;;;;;;9.93;6.00;;;;;;;;;;5005802;28;20069;-54
2022/07/21 02:18:01;;;;;;;9.25;5.75;;;;;;;;;;5010599;28;20041;-52
2022/07/21 02:20:28;;;;;;;9.82;5.88;;;;;;;;;;5011698;28;20483;-55
2022/07/21 02:22:54;;;;;;;13.05;6.18;;;;;;;;;;5003004;28;20122;-54
2022/07/21 02:25:20;;;;;;;12.48;6.00;;;;;;;;;;5003969;28;20033;-52
2022/07/21 02:27:46;;;;;;;12.02;5.93;;;;;;;;;;4996193;28;20042;-53
2022/07/21 02:30:13;;;;;;;10.02;5.32;;;;;;;;;;4992826;28;20084;-56
2022/07/21 02:32:39;;;;;;;8.43;6.38;;;;;;;;;;4993063;28;20031;-53
2022/07/21 02:35:06;;;;;;;13.25;6.60;;;;;;;;;;4993230;28;20026;-53
2022/07/21 02:37:32;;;;;;;;;;;;;;;;;;4997109;28;20185;-54
2022/07/21 02:39:58;;;;;;;11.80;6.10;;;;;;;;;;4992762;28;19910;-56
2022/07/21 02:42:24;;;;;;;9.88;6.18;;;27.90;51.30;;;;;;4992969;28;20446;-55
2022/07/21 02:44:50;;;;;;;10.73;6.00;;;27.20;51.60;;;;;;5005459;28;20018;-56
2022/07/21 02:47:16;;;;;;;14.87;6.43;;;;;;;;;;5010236;28;20034;-56
2022/07/21 02:49:42;;;;;;;13.30;7.30;;;;;;;;;;5011847;28;20529;-54
2022/07/21 02:52:08;;;;;;;12.23;6.53;;;;;;;;;;5003668;28;20030;-56
2022/07/21 02:54:34;;;;;;;11.57;6.37;;;;;;;;;;5003581;28;20048;-56
2022/07/21 02:57:00;;;;;;;14.70;7.45;;;;;;;;;;4993692;28;20289;-53
2022/07/21 02:59:26;;;;;;;14.43;6.53;;;;;;;;;;5005987;28;20463;-56
2022/07/21 03:01:52;;;;;;;16.10;6.53;;;;;;;;;;4996369;28;20061;-55
2022/07/21 03:04:18;;;;;;;12.02;6.80;;;;;;;;;;4992844;28;20510;-53
2022/07/21 03:06:44;;;;;;;12.73;6.90;;;;;;;;;;4993654;28;20046;-57
2022/07/21 03:09:10;;;;;;;7.03;5.57;;;;;;;;;;4992596;28;20026;-53
2022/07/21 03:11:36;;;;;;;12.00;6.70;;;;;;;;;;4992581;28;20101;-53
2022/07/21 03:14:02;;;;;;;13.60;6.40;;;;;;;;;;5003418;28;20164;-57
2022/07/21 03:16:28;;;;;;;13.23;7.45;;;;;;;;;;4990322;28;20090;-57
2022/07/21 03:18:54;;;;;;;9.48;6.65;;;;;;;;;;4990659;28;20033;-55
2022/07/21 03:21:21;;;;;;;12.50;7.13;;;;;;;;;;4990914;28;20018;-55
2022/07/21 03:23:47;;;;;;;10.15;7.13;;;;;;;;;;4992195;28;20521;-56
2022/07/21 03:26:13;;;;;;;14.27;7.03;;;;;;;;;;4992442;28;20026;-54
2022/07/21 03:28:40;;;;;;;15.27;6.75;;;;;;;;;;5007720;28;20311;-56
2022/07/21 03:31:06;;;;;;;13.65;6.82;;;;;;;;;;5012103;28;20034;-57
2022/07/21 03:33:32;;;;;;;11.80;6.47;;;;;;;;;;5007769;28;20030;-53
2022/07/21 03:35:59;;;;;;;9.45;6.93;;;;;;;;;;5011920;28;20041;-57
2022/07/21 03:38:26;;;;;;;9.18;6.78;;;;;;;;;;4998320;28;20022;-53
2022/07/21 03:40:52;;;;;;;13.95;7.95;;;;;;;;;;4992991;28;20058;-57
2022/07/21 03:43:18;;;;;;;15.60;6.82;;;;;;;;;;4992564;28;20052;-53
2022/07/21 03:45:44;;;;;;;9.57;6.78;;;;;;;;;;4992457;28;20034;-58
2022/07/21 03:48:10;;;;;;;11.33;6.20;;;;;;;;;;4992099;28;20058;-54
2022/07/21 03:50:39;;;;;;;16.55;6.82;;;;;;;;;;4991329;28;20257;-52
2022/07/21 03:53:06;;;;;;;12.52;6.75;;;;;;;;;;4992485;28;20483;-55
2022/07/21 03:55:32;;;;;;;12.90;7.35;;;;;;;;;;4991853;28;20030;-53
2022/07/21 03:58:00;;;;;;;17.80;7.53;;;;;;;;;;4992323;28;20034;-56
2022/07/21 04:00:28;;;;;;;12.70;6.53;;;;;;;;;;4990635;28;20488;-56
2022/07/21 04:02:54;;;;;;;11.65;6.40;;;;;;;;;;4993047;28;20658;-56
2022/07/21 04:05:21;;;;;;;16.90;6.50;;;;;;;;;;4978812;28;20046;-55
2022/07/21 04:07:47;;;;;;;;;;;;;;;;;;4992174;28;20035;-54
2022/07/21 04:10:14;;;;;;;9.88;6.95;;;;;;;;;;4993062;28;19917;-57
2022/07/21 04:12:41;;;;;;;11.77;7.05;;;;;;;;;;4991922;28;20031;-56
2022/07/21 04:15:08;;;;;;;14.68;6.35;;;;;;;;;;4991297;28;20124;-55
2022/07/21 04:17:34;;;;;;;17.80;7.80;;;;;;;;;;4991356;28;20395;-56
2022/07/21 04:20:00;;;;;;;25.05;8.48;;;;;;;;;;4991866;28;20132;-57
2022/07/21 04:22:26;;;;;;;24.07;8.60;;;;;;;;;;4992063;28;20643;-54
2022/07/21 04:24:52;;;;;;;18.67;8.55;;;;;;;;;;4991958;28;20339;-53
2022/07/21 04:27:18;;;;;;;18.63;8.05;;;;;;;;;;4991982;28;20035;-55
2022/07/21 04:29:44;;;;;;;11.57;6.40;;;;;;;;;;4991772;28;20514;-54
2022/07/21 04:32:10;;;;;;;13.63;6.95;;;;;;;;;;4991892;28;20495;-55
2022/07/21 04:34:36;;;;;;;15.52;6.57;;;;;;;;;;4991864;28;20519;-55
2022/07/21 04:37:03;;;;;;;11.55;6.40;;;;;;;;;;4991890;28;20057;-55
2022/07/21 04:39:29;;;;;;;12.15;6.70;;;;;;;;;;4991840;28;20029;-53
2022/07/21 04:41:55;;;;;;;9.25;7.63;;;;;;;;;;4990605;28;20616;-56
2022/07/21 04:44:21;;;;;;;10.32;6.50;;;;;;;;;;4991782;28;20434;-53
2022/07/21 04:46:47;;;;;;;14.13;6.65;;;;;;;;;;4992026;28;20030;-53
2022/07/21 04:49:13;;;;;;;9.63;6.57;;;;;;;;;;4995265;28;20105;-53
2022/07/21 04:51:40;;;;;;;12.10;7.18;;;;;;;;;;4995217;28;20765;-53
2022/07/21 04:54:06;;;;;;;11.32;6.38;;;;;;;;;;4995581;28;20181;-60
2022/07/21 04:56:34;;;;;;;9.10;6.05;;;;;;;;;;4994861;28;20019;-60
2022/07/21 04:59:00;;;;;;;8.50;7.55;;;;;;;;;;4995008;28;20034;-60
2022/07/21 05:01:26;;;;;;;10.55;6.35;;;;;;;;;;4995138;28;20030;-58
2022/07/21 05:03:52;;;;;;;13.30;6.43;;;;;;;;;;4995105;28;20085;-60
2022/07/21 05:06:18;;;;;;;13.10;6.93;;;;;;;;;;4994964;28;20019;-60
2022/07/21 05:08:45;;;;;;;13.30;6.65;;;;;;;;;;4994917;28;20030;-60
2022/07/21 05:11:11;;;;;;;12.55;7.15;;;;;;;;;;4995032;28;20050;-59
2022/07/21 05:13:37;;;;;;;18.65;6.15;;;;;;;;;;4992583;28;20089;-53
2022/07/21 05:16:03;;;;;;;8.68;6.43;;;;;;;;;;4993019;23;20528;-55
2022/07/21 05:18:29;;;;;;;9.43;5.78;;;;;;;;;;5013610;28;20394;-53
2022/07/21 05:20:55;;;;;;;9.98;6.55;;;;;;;;;;5014357;28;20034;-52
2022/07/21 05:23:21;;;;;;;11.45;6.72;;;;;;;;;;5012673;28;20310;-54
2022/07/21 05:25:47;;;;;;;12.23;6.30;;;;;;;;;;5010940;28;20030;-52
2022/07/21 05:28:13;;;;;;;11.00;5.87;;;;;;;;;;5012257;28;20025;-53
2022/07/21 05:30:39;;;;;;;10.05;7.18;;;;;;;;;;5012029;28;20639;-56
2022/07/21 05:33:05;;;;;;;18.15;6.57;;;;;;;;;;5012270;28;20034;-53
2022/07/21 05:35:31;;;;;;;12.07;7.22;;;;;;;;;;5012504;28;20052;-54
2022/07/21 05:37:58;;;;;;;10.98;6.75;;;;;;;;;;5013618;28;20467;-56
2022/07/21 05:40:24;;;;;;;14.70;6.22;;;;;;;;;;5013986;28;20018;-57
2022/07/21 05:42:50;;;;;;;12.57;6.05;;;;;;;;;;5013785;28;20022;-57
2022/07/21 05:45:16;;;;;;;11.95;5.63;;;;;;;;;;5013725;28;20441;-55
2022/07/21 05:47:42;;;;;;;21.15;7.05;;;;;;;;;;5013816;28;20104;-56
2022/07/21 05:50:08;;;;;;;14.77;6.38;;;;;;;;;;5013579;28;20072;-57
2022/07/21 05:52:34;;;;;;;14.88;5.82;;;;;;;;;;5013647;28;20398;-57
2022/07/21 05:55:00;;;;;;;14.48;5.57;;;;;;;;;;5013676;28;20030;-55
2022/07/21 05:57:27;;;;;;;8.75;5.38;;;;;;;;;;5013421;28;20108;-55
2022/07/21 05:59:53;;;;;;;10.10;5.35;;;;;;;;;;5011023;28;20022;-57
2022/07/21 06:02:19;;;;;;;9.93;5.53;;;;;;;;;;5013313;28;20100;-53
2022/07/21 06:04:45;;;;;;;15.32;6.32;;;;;;;;;;5010490;28;20022;-53
2022/07/21 06:07:11;;;;;;;11.18;4.95;;;;;;;;;;5013393;28;20053;-53
2022/07/21 06:09:37;;;;;;;9.32;5.55;;;;;;;;;;5013518;28;20018;-54
2022/07/21 06:12:03;;;;;;;9.60;5.03;;;;;;;;;;5012032;28;20026;-51
2022/07/21 06:14:29;;;;;;;9.43;5.00;;;;;;;;;;5013371;28;20033;-51
2022/07/21 06:16:55;;;;;;;22.33;4.53;;;;;;;;;;5011743;28;20553;-52
2022/07/21 06:19:21;;;;;;;10.35;4.22;;;27.10;51.50;;;;;;5013057;28;20111;-48
2022/07/21 06:21:47;;;;;;;14.70;3.93;;;;;;;;;;5012918;28;20054;-49
2022/07/21 06:24:13;;;;;;;8.90;4.05;;;;;;;;;;5013223;28;20033;-49
2022/07/21 06:26:40;;;;;;;11.40;4.10;;;;;;;;;;5012954;28;20029;-47
2022/07/21 06:29:06;;;;;;;7.63;4.20;;;;;;;;;;5012977;28;20022;-49
2022/07/21 06:31:32;;;;;;;6.50;3.50;;;;;;;;;;5013053;28;20057;-47
2022/07/21 06:33:58;;;;;;;13.18;4.18;;;;;;;;;;5013071;28;20463;-48
2022/07/21 06:36:24;;;;;;;4.70;3.72;;;;;;;;;;5011617;28;20026;-48
2022/07/21 06:38:50;;;;;;;44.78;6.05;;;;;;;;;;5012443;28;20033;-48
2022/07/21 06:41:17;;;;;;;5.47;3.47;;;;;;;;;;5011518;28;20049;-48
2022/07/21 06:43:43;;;;;;;10.95;3.45;;;;;;;;;;5000476;28;20505;-52
2022/07/21 06:46:09;;;;;;;11.05;3.47;;;;;;;;;;4993069;28;20014;-51
2022/07/21 06:48:35;;;;;;;9.15;3.80;;;;;;;;;;4993015;28;20031;-51
2022/07/21 06:51:01;;;;;;;8.13;3.55;;;;;;;;;;4993282;28;20030;-48
2022/07/21 06:53:27;;;;;;;7.97;3.05;;;;;;;;;;4993068;28;20097;-49
2022/07/21 06:55:53;;;;;;;11.30;3.60;;;;;;;;;;4992832;28;20028;-49
2022/07/21 06:58:21;;;;;;;10.05;2.90;;;;;;;;;;4992987;28;20034;-53
2022/07/21 07:00:48;;;;;;;12.73;3.28;;;;;;;;;;4991514;28;20084;-51
2022/07/21 07:03:14;;;;;;;12.30;2.88;;;;;;;;;;4993081;28;20034;-49
2022/07/21 07:05:42;;;;;;;9.35;3.50;;;;;;;;;;4995655;28;20145;-49
2022/07/21 07:08:08;;;;;;;6.93;2.53;;;;;;;;;;4993195;28;20034;-48
2022/07/21 07:10:34;;;;;;;10.52;3.50;;;;;;;;;;4992146;28;20490;-51
2022/07/21 07:13:01;;;;;;;13.05;3.50;;;;;;;;;;4992823;28;20399;-48
2022/07/21 07:15:28;;;;;;;12.32;2.50;;;;;;;;;;4992484;28;20109;-51
2022/07/21 07:17:55;;;;;;;12.38;3.00;;;;;;;;;;5000930;28;20038;-50
2022/07/21 07:20:20;;;;;;;;;;;;;;;;;;5002398;28;20045;-48
2022/07/21 07:22:47;;;;;;;15.10;2.67;;;;;;;;;;5012337;28;19995;-53
2022/07/21 07:25:17;;;;;;;14.77;2.28;;;;;;;;;;5012167;28;20025;-54
2022/07/21 07:27:44;;;;;;;7.47;2.33;;;;;;;;;;5011261;28;20529;-55
2022/07/21 07:30:10;;;;;;;9.93;3.60;;;;;;;;;;5010720;28;20533;-53
2022/07/21 07:32:36;;;;;;;5.88;2.30;;;;;;;;;;5010969;28;20028;-54
2022/07/21 07:35:03;;;;;;;7.18;3.05;;;;;;;;;;5012441;28;20041;-53
2022/07/21 07:37:29;;;;;;;;;;;;;;;;;;5012349;28;20040;-53
2022/07/21 07:39:55;;;;;;;7.72;2.55;;;;;;;;;;5011845;28;20047;-51
2022/07/21 07:42:21;;;;;;;22.20;3.20;;;;;;;;;;5010700;28;20572;-55
2022/07/21 07:44:47;;;;;;;8.40;2.50;;;;;;;;;;5011931;28;20049;-52
2022/07/21 07:47:13;;;;;;;8.32;3.22;;;;;;;;;;5011904;28;20096;-52
2022/07/21 07:49:39;;;;;;;8.75;2.53;;;;;;;;;;5011760;28;20022;-52
2022/07/21 07:52:06;;;;;;;5.57;2.30;;;;;;;;;;5010548;28;20040;-53
2022/07/21 07:54:32;;;;;;;7.53;2.08;;;;;;;;;;5011734;28;20026;-52
2022/07/21 07:56:58;;;;;;;8.73;2.10;;;;;;;;;;5011658;28;20109;-51
2022/07/21 07:59:24;;;;;;;8.75;2.33;;;;;;;;;;5011671;28;20100;-55
2022/07/21 08:01:50;;;;;;;11.48;2.35;;;;;;;;;;5011945;28;20390;-54
2022/07/21 08:04:16;;;;;;;11.65;2.22;;;;;;;;;;5011706;28;20478;-55
2022/07/21 08:06:42;;;;;;;11.85;2.45;;;;;;;;;;5011625;28;20049;-55
2022/07/21 08:09:09;;;;;;;9.07;2.35;;;;;;;;;;5011516;28;20036;-55
2022/07/21 08:11:35;;;;;;;8.52;1.90;;;;;;;;;;5011684;28;20057;-56
2022/07/21 08:14:01;;;;;;;8.82;2.65;;;;;;;;;;5011659;28;20026;-56
2022/07/21 08:16:27;;;;;;;6.47;2.15;;;;;;;;;;5010227;28;20038;-56
2022/07/21 08:18:53;;;;;;;6.00;1.77;;;;;;;;;;5011559;28;20030;-54
2022/07/21 08:21:19;;;;;;;6.47;2.05;;;;;;;;;;5011503;28;20022;-54
2022/07/21 08:23:45;;;;;;;8.25;1.70;;;;;;;;;;5014970;28;20018;-54
2022/07/21 08:26:11;;;;;;;8.30;2.33;;;;;;;;;;5015216;28;20030;-54
2022/07/21 08:28:37;;;;;;;9.00;1.75;;;;;;;;;;5015142;28;20022;-52
2022/07/21 08:31:04;;;;;;;10.55;2.42;;;;;;;;;;5015207;28;20033;-54
2022/07/21 08:33:30;;;;;;;6.95;2.00;;;;;;;;;;5015489;28;20390;-52
2022/07/21 08:35:57;;;;;;;3.88;2.47;;;;;;;;;;5015289;28;20368;-55
2022/07/21 08:38:24;;;;;;;6.78;2.10;;;;;;;;;;5015106;28;20053;-53
2022/07/21 08:40:50;;;;;;;8.35;2.05;;;;;;;;;;5015016;28;20069;-54
2022/07/21 08:43:16;;;;;;;8.23;2.17;;;;;;;;;;5015138;28;20022;-56
2022/07/21 08:45:42;;;;;;;7.57;2.53;;;;;;;;;;5013769;28;20380;-56
2022/07/21 08:48:08;;;;;;;;;;;;;;;;;;5015269;28;20041;-53
2022/07/21 08:50:36;;;;;;;14.25;2.03;;;;;;;;;;5014555;28;20294;-52
2022/07/21 08:53:02;;;;;;;12.93;2.20;;;;;;;;;;5014714;28;20034;-55
2022/07/21 08:55:31;;;;;;;22.80;3.35;;;;;;;;;;5014543;28;20026;-56
2022/07/21 08:57:57;;;;;;;6.65;2.00;;;;;;;;;;5014708;28;20292;-55
2022/07/21 09:00:23;;;;;;;12.50;2.50;;;;;;;;;;5014624;28;20249;-55
2022/07/21 09:02:49;;;;;;;12.55;2.50;;;;;;;;;;5013427;28;20025;-56
2022/07/21 09:05:15;;;;;;;6.00;1.98;;;;;;;;;;5014452;28;20026;-54
2022/07/21 09:07:49;;;;;;;5.63;2.22;;;;;;;;;;5014512;28;20072;-52
2022/07/21 09:10:15;;;;;;;8.90;1.75;;;;;;;;;;5014320;28;20030;-56
2022/07/21 09:12:52;;;;;;;6.32;2.47;;;;;;;;;;5014522;28;20521;-56
2022/07/21 09:15:19;;;;;;;10.73;2.35;;;;;;;;;;5014426;28;20116;-54
2022/07/21 09:17:45;;;;;;;7.32;2.00;;;;;;;;;;5012811;28;20153;-56
2022/07/21 09:20:24;;;;;;;6.35;1.60;;;;;;;;;;5014556;28;20121;-54
2022/07/21 09:23:10;;;;;;;5.72;1.75;;;;;;;;;;5014277;28;20024;-52
2022/07/21 09:25:40;;;;;;;5.57;1.85;;;;;;;;;;5014144;28;20033;-55
2022/07/21 09:28:16;;;;;;;4.78;2.08;;;;;;;;;;5014103;28;20037;-54
2022/07/21 09:30:49;;;;;;;6.55;2.08;;;;;;;;;;5013928;28;20057;-54
2022/07/21 09:33:31;;;;;;;9.02;2.63;;;;;;;;;;5013843;28;20085;-55
2022/07/21 09:36:03;;;;;;;8.07;1.88;;;;;;;;;;5013984;28;20037;-55
2022/07/21 09:38:30;;;;;;;3.17;1.50;;;;;;;;;;5013737;28;20033;-54
2022/07/21 09:41:04;;;;;;;5.78;1.60;;;;;;;;;;5013895;28;20034;-55
2022/07/21 09:43:30;;;;;;;6.53;1.90;;;;;;;;;;5013814;28;20061;-54
2022/07/21 09:45:56;;;;;;;6.07;1.65;;;;;;;;;;5012052;28;20034;-55
2022/07/21 09:48:36;;;;;;;4.70;1.70;;;;;;;;;;5013569;28;20032;-53
2022/07/21 09:51:20;;;;;;;3.40;1.70;;;;;;;;;;5013690;28;20061;-56
2022/07/21 09:53:49;;;;;;;5.88;1.70;;;;;;;;;;5012261;28;20030;-54
2022/07/21 09:56:17;;;;;;;8.68;1.83;;;;;;;;;;5013710;28;20057;-56
2022/07/21 09:58:45;;;;;;;8.10;2.72;;;;;;;;;;5013436;28;20068;-55
2022/07/21 10:01:11;;;;;;;4.25;1.98;;;;;;;;;;5013498;28;20117;-56
2022/07/21 10:03:38;;;;;;;8.65;1.77;;;;;;;;;;5013463;28;20372;-54
2022/07/21 10:06:04;;;;;;;5.75;1.40;;;;;;;;;;5013377;28;20479;-56
2022/07/21 10:08:32;;;;;;;14.32;2.28;;;;;;;;;;5013191;28;20017;-52
2022/07/21 10:10:58;;;;;;;6.80;1.52;;;;;;;;;;5012067;28;20255;-55
2022/07/21 10:13:27;;;;;;;6.97;1.60;;;;;;;;;;5012305;28;20053;-52
2022/07/21 10:15:54;;;;;;;16.13;4.40;;;;;;;;;;5009929;28;20116;-56
2022/07/21 10:18:33;;;;;;;4.43;1.55;;;;;;;;;;5018251;28;20030;-54
2022/07/21 10:21:08;;;;;;;5.18;1.55;;;;;;;;;;5012894;28;20774;-56
2022/07/21 10:23:43;;;;;;;7.97;1.58;;;;;;;;;;5013201;28;20026;-56
2022/07/21 10:26:10;;;;;;;4.63;1.83;;;;;;;;;;5011803;28;20562;-53
2022/07/21 10:28:36;;;;;;;3.50;1.65;;;;;;;;;;5012383;28;20052;-57
2022/07/21 10:31:21;;;;;;;4.13;1.67;;;;;;;;;;5013956;28;20025;-55
2022/07/21 10:33:50;;;;;;;4.63;1.73;;;;;;;;;;4994143;28;20144;-54
2022/07/21 10:36:40;;;;;;;3.10;1.50;;;;;;;;;;5009176;28;20026;-54
2022/07/21 10:39:09;;;;;;;11.27;2.03;;;;;;;;;;5012353;28;20056;-56
2022/07/21 10:41:38;;;;;;;7.03;1.65;;;;;;;;;;5012841;28;20109;-55
2022/07/21 10:44:24;;;;;;;4.50;1.83;;;;;;;;;;5011308;28;20493;-56
2022/07/21 10:47:10;;;;;;;5.47;1.80;;;;;;;;;;5012441;28;20022;-56
2022/07/21 10:49:47;;;;;;;7.13;1.55;;;;;;;;;;5011972;28;20053;-55
2022/07/21 10:52:32;;;;;;;6.93;1.90;;;;;;;;;;5012768;28;20030;-56
2022/07/21 10:55:13;;;;;;;3.28;1.80;;;;;;;;;;5012632;28;20026;-56
2022/07/21 10:57:39;;;;;;;5.55;1.90;;;;;;;;;;4999404;28;20049;-55
2022/07/21 11:00:22;;;;;;;6.55;1.90;;;;;;;;;;5002454;28;20058;-55
2022/07/21 11:02:49;;;;;;;4.38;1.83;;;;;;;;;;5001138;28;20066;-55
2022/07/21 11:05:15;;;;;;;3.25;1.60;;;;;;;;;;5003957;28;20037;-55
2022/07/21 11:08:00;;;;;;;3.05;2.00;;;;;;;;;;5000085;28;20030;-57
2022/07/21 11:10:26;;;;;;;3.88;1.58;;;;;;;;;;5002114;28;20056;-56
2022/07/21 11:12:56;;;;;;;3.13;1.90;;;;;;;;;;5007183;28;20029;-56
2022/07/21 11:15:46;;;;;;;3.42;1.70;;;;;;;;;;5007201;28;20040;-54
2022/07/21 11:18:16;;;;;;;4.00;1.70;;;;;;;;;;5005265;23;20050;-50
2022/07/21 11:20:42;;;;;;;3.88;1.63;;;;;;;;;;4990154;28;20034;-49
2022/07/21 11:23:08;;;;;;;3.13;1.80;;;;;;;;;;4992150;28;20104;-48
2022/07/21 11:25:35;;;;;;;7.38;1.70;;;;;;;;;;4992151;28;20030;-49
2022/07/21 11:28:01;;;;;;;6.40;1.58;;;;;;;;;;4992396;28;20033;-50
2022/07/21 11:30:27;;;;;;;7.18;1.75;;;;;;;;;;4992311;28;20084;-49
2022/07/21 11:32:53;;;;;;;;;;;;;;;;;;4991775;28;20109;-49
2022/07/21 11:35:20;;;;;;;6.78;2.33;;;;;;;;;;4990515;28;19959;-49
2022/07/21 11:37:46;;;;;;;;;;;;;;;;;;4990767;28;20030;-50
2022/07/21 11:40:19;;;;;;;5.57;2.10;;;;;;;;;;4991341;28;20326;-50
2022/07/21 11:42:48;;;;;;;5.25;1.88;;;;;;;;;;4992444;28;20053;-50
2022/07/21 11:45:15;;;;;;;8.68;1.90;;;;;;;;;;4992063;28;20061;-49
2022/07/21 11:47:41;;;;;;;5.18;1.77;;;;;;;;;;4984176;28;20034;-50
2022/07/21 11:50:07;;;;;;;;;;;;;;;;;;4992431;28;20032;-50
2022/07/21 11:52:36;;;;;;;10.73;1.85;;;;;;;;;;4992309;28;19988;-49
2022/07/21 11:55:04;;;;;;;5.63;2.33;;;;;;;;;;4992266;28;20085;-49
2022/07/21 11:57:30;;;;;;;5.20;2.17;;;;;;;;;;4995104;28;20031;-49
2022/07/21 11:59:56;;;;;;;;;;;;;;;;;;4996414;28;20482;-49
2022/07/21 12:02:23;;;;;;;6.47;2.53;;;;;;;;;;4996328;28;19914;-50
2022/07/21 12:04:50;;;;;;;9.30;2.15;;;;;;;;;;4996119;28;20046;-50
2022/07/21 12:07:16;;;;;;;;;;;;;;;;;;4996071;28;20065;-48
2022/07/21 12:09:43;;;;;;;7.13;2.00;;;;;;;;;;4995912;28;19921;-50
2022/07/21 12:12:09;;;;;;;3.13;1.73;;;;;;;;;;4996120;28;20113;-49
2022/07/21 12:14:35;;;;;;;;;;;;;;;;;;4996636;28;20034;-49
2022/07/21 12:17:02;;;;;;;7.70;2.35;;;;;;;;;;4994187;28;19917;-50
2022/07/21 12:19:28;;;;;;;4.28;2.28;;;;;;;;;;4995768;28;20022;-49
2022/07/21 12:21:54;;;;;;;;;;;;;;;;;;4996064;28;20035;-50
2022/07/21 12:24:24;;;;;;;6.72;2.05;;;;;;;;;;4995700;28;19916;-49
2022/07/21 12:26:50;;;;;;;9.20;2.50;;;;;;;;;;4995525;28;20026;-50
2022/07/21 12:29:16;;;;;;;;;;;;;;;;;;4994892;28;20033;-50
2022/07/21 12:31:42;;;;;;;6.35;2.40;;;;;;;;;;4995074;28;19956;-49
2022/07/21 12:34:08;;;;;;;;;;;;;;;;;;4996085;28;20026;-50
2022/07/21 12:36:34;;;;;;;7.30;2.00;;;;;;;;;;4994201;28;19916;-50
2022/07/21 12:39:00;;;;;;;;;;;;;;;;;;4995833;28;20543;-49
2022/07/21 12:41:27;;;;;;;5.10;2.15;;;;;;;;;;4995525;28;19914;-50
2022/07/21 12:43:53;;;;;;;;;;;;;;;;;;4996114;28;20026;-49
2022/07/21 12:46:19;;;;;;;7.55;2.30;;;;;;;;;;4995445;28;20362;-50
2022/07/21 12:48:46;;;;;;;4.65;2.65;;;;;;;;;;4995079;28;20037;-50
2022/07/21 12:51:15;;;;;;;7.88;1.95;;;;;;;;;;4995137;28;20395;-50
2022/07/21 12:53:46;;;;;;;8.02;2.17;;;;;;;;;;4995272;28;20062;-49
2022/07/21 12:56:13;;;;;;;12.65;2.63;;;;;;;;;;4995287;28;20117;-49
2022/07/21 12:58:40;;;;;;;15.70;2.38;;;;;;;;;;4995041;28;20142;-51
2022/07/21 13:01:06;;;;;;;8.18;2.45;;;;;;;;;;4994798;28;20022;-49
2022/07/21 13:03:33;;;;;;;5.22;2.08;;;;;;;;;;4995192;28;20038;-50
2022/07/21 13:06:00;;;;;;;11.18;2.17;;;;;;;;;;4995072;28;20026;-50
2022/07/21 13:08:26;;;;;;;3.92;1.90;;;;;;;;;;4994236;28;20491;-50
2022/07/21 13:10:53;;;;;;;8.13;2.22;;;;;;;;;;4994622;28;20441;-50
2022/07/21 13:13:19;;;;;;;;;;;;;;;;;;4995441;28;20057;-50
2022/07/21 13:15:45;;;;;;;12.05;2.50;;;;;;;;;;4994915;28;19910;-50
2022/07/21 13:18:11;;;;;;;;;;;;;;;;;;4994011;28;20084;-49
2022/07/21 13:20:37;;;;;;;8.77;2.20;;;;;;;;;;4994224;28;20008;-50
2022/07/21 13:23:03;;;;;;;;;;;;;;;;;;4995140;28;20069;-50
2022/07/21 13:25:29;;;;;;;12.65;2.65;;;;;;;;;;4993390;28;19946;-50
2022/07/21 13:27:55;;;;;;;;;;;;;;;;;;4995179;28;20034;-51
2022/07/21 13:30:22;;;;;;;4.50;2.47;;;;;;;;;;4992880;28;19916;-50
2022/07/21 13:32:48;;;;;;;7.30;2.47;;;;;;;;;;4994464;28;20040;-50
2022/07/21 13:35:14;;;;;;;7.78;2.80;;;;;;;;;;4994342;28;20030;-50
2022/07/21 13:37:41;;;;;;;10.75;2.33;;;;;;;;;;4993059;28;20031;-50
2022/07/21 13:40:07;;;;;;;10.40;2.70;;;;;;;;;;4987033;28;20105;-50
2022/07/21 13:42:33;;;;;;;6.88;2.83;;;;;;;;;;4986474;28;20549;-50
2022/07/21 13:45:00;;;;;;;4.07;2.25;;;;;;;;;;4986762;28;20030;-50
2022/07/21 13:47:26;;;;;;;7.10;2.22;;;;;;;;;;4987450;28;20030;-50
2022/07/21 13:49:52;;;;;;;7.40;2.90;;;;;;;;;;4987526;28;20033;-50
2022/07/21 13:52:18;;;;;;;7.55;1.83;;;;;;;;;;4988623;28;20030;-50
2022/07/21 13:54:44;;;;;;;3.90;2.42;;;;;;;;;;4993689;28;20105;-51
2022/07/21 13:57:11;;;;;;;10.18;2.60;;;;;;;;;;4979106;28;20030;-49
2022/07/21 13:59:37;;;;;;;8.68;2.22;;;;;;;;;;4993851;28;20019;-50
2022/07/21 14:02:04;;;;;;;12.43;2.67;;;;;;;;;;4992450;28;20422;-48
2022/07/21 14:04:30;;;;;;;7.72;2.22;;;;;;;;;;4989600;28;20029;-49
2022/07/21 14:06:56;;;;;;;6.80;1.92;;;;;;;;;;4989818;28;20065;-49
2022/07/21 14:09:22;;;;;;;24.85;3.38;;;;;;;;;;4987095;28;20034;-49
2022/07/21 14:11:49;;;;;;;7.00;2.90;;;;;;;;;;4982086;28;20027;-49
2022/07/21 14:14:21;;;;;;;4.10;2.40;;;;;;;;;;4981532;28;20061;-50
2022/07/21 14:16:48;;;;;;;11.05;2.60;;;;;;;;;;4985535;28;20034;-50
2022/07/21 14:19:15;;;;;;;8.07;2.33;;;;;;;;;;4989020;28;20025;-49
2022/07/21 14:21:41;;;;;;;7.88;2.35;;;;;;;;;;4981423;28;20029;-52
2022/07/21 14:26:52;;;;;;;4.43;2.17;;;;;;;;;;4993468;28;20056;-51
2022/07/21 14:29:18;;;;;;;5.53;1.90;;;;;;;;;;4996816;28;20027;-51
2022/07/21 14:31:44;;;;;;;6.32;2.33;;;;;;;;;;4992662;28;20027;-49
2022/07/21 14:34:10;;;;;;;4.80;2.60;;;;;;;;;;4997241;28;20085;-49
2022/07/21 14:36:37;;;;;;;6.30;2.35;;;;;;;;;;4998013;28;20081;-50
2022/07/21 14:39:03;;;;;;;8.07;2.90;;;;;;;;;;5012462;28;20030;-49